sensor_id;sensor_type;location;lat;lon;timestamp;P1;durP1;ratioP1;P2;durP2;ratioP2
72904;SDS011;61048;52.162;4.516;2023-02-08T00:01:58;8.07;;;3.80;;
72904;SDS011;61048;52.162;4.516;2023-02-08T00:04:27;8.20;;;3.72;;
72904;SDS011;61048;52.162;4.516;2023-02-08T00:06:54;5.22;;;3.63;;
72904;SDS011;61048;52.162;4.516;2023-02-08T00:09:20;6.43;;;2.95;;
72904;SDS011;61048;52.162;4.516;2023-02-08T00:11:47;6.30;;;2.45;;
72904;SDS011;61048;52.162;4.516;2023-02-08T00:14:14;10.65;;;3.47;;
72904;SDS011;61048;52.162;4.516;2023-02-08T00:16:41;6.63;;;3.17;;
72904;SDS011;61048;52.162;4.516;2023-02-08T00:19:08;4.85;;;3.00;;
72904;SDS011;61048;52.162;4.516;2023-02-08T00:21:36;5.45;;;3.85;;
72904;SDS011;61048;52.162;4.516;2023-02-08T00:24:03;6.30;;;2.90;;
72904;SDS011;61048;52.162;4.516;2023-02-08T00:26:30;5.38;;;2.70;;
72904;SDS011;61048;52.162;4.516;2023-02-08T00:28:57;6.07;;;3.10;;
72904;SDS011;61048;52.162;4.516;2023-02-08T00:31:24;5.10;;;2.75;;
72904;SDS011;61048;52.162;4.516;2023-02-08T00:33:51;5.97;;;3.45;;
72904;SDS011;61048;52.162;4.516;2023-02-08T00:36:18;5.40;;;3.10;;
72904;SDS011;61048;52.162;4.516;2023-02-08T00:38:46;8.82;;;3.35;;
72904;SDS011;61048;52.162;4.516;2023-02-08T00:41:13;7.15;;;3.10;;
72904;SDS011;61048;52.162;4.516;2023-02-08T00:43:40;5.20;;;2.80;;
72904;SDS011;61048;52.162;4.516;2023-02-08T00:46:07;4.53;;;2.53;;
72904;SDS011;61048;52.162;4.516;2023-02-08T00:48:34;5.30;;;2.33;;
72904;SDS011;61048;52.162;4.516;2023-02-08T00:51:04;5.22;;;2.45;;
72904;SDS011;61048;52.162;4.516;2023-02-08T00:53:36;3.42;;;2.40;;
72904;SDS011;61048;52.162;4.516;2023-02-08T00:56:05;5.25;;;2.80;;
72904;SDS011;61048;52.162;4.516;2023-02-08T00:58:33;4.38;;;3.00;;
72904;SDS011;61048;52.162;4.516;2023-02-08T01:01:00;3.95;;;2.10;;
72904;SDS011;61048;52.162;4.516;2023-02-08T01:03:28;3.97;;;1.73;;
72904;SDS011;61048;52.162;4.516;2023-02-08T01:05:59;6.20;;;2.72;;
72904;SDS011;61048;52.162;4.516;2023-02-08T01:08:26;7.03;;;3.25;;
72904;SDS011;61048;52.162;4.516;2023-02-08T01:11:00;3.25;;;2.35;;
72904;SDS011;61048;52.162;4.516;2023-02-08T01:13:29;5.43;;;3.08;;
72904;SDS011;61048;52.162;4.516;2023-02-08T01:16:03;4.63;;;2.72;;
72904;SDS011;61048;52.162;4.516;2023-02-08T01:18:31;3.63;;;1.95;;
72904;SDS011;61048;52.162;4.516;2023-02-08T01:21:02;4.90;;;3.03;;
72904;SDS011;61048;52.162;4.516;2023-02-08T01:23:29;6.68;;;2.70;;
72904;SDS011;61048;52.162;4.516;2023-02-08T01:25:56;4.88;;;2.38;;
72904;SDS011;61048;52.162;4.516;2023-02-08T01:28:23;4.68;;;2.88;;
72904;SDS011;61048;52.162;4.516;2023-02-08T01:30:51;4.65;;;2.53;;
72904;SDS011;61048;52.162;4.516;2023-02-08T01:33:18;4.63;;;2.17;;
72904;SDS011;61048;52.162;4.516;2023-02-08T01:35:48;4.53;;;2.97;;
72904;SDS011;61048;52.162;4.516;2023-02-08T01:38:16;4.00;;;2.80;;
72904;SDS011;61048;52.162;4.516;2023-02-08T01:40:44;5.20;;;2.35;;
72904;SDS011;61048;52.162;4.516;2023-02-08T01:43:15;3.55;;;2.45;;
72904;SDS011;61048;52.162;4.516;2023-02-08T01:45:46;4.40;;;2.70;;
72904;SDS011;61048;52.162;4.516;2023-02-08T01:48:15;3.65;;;1.90;;
72904;SDS011;61048;52.162;4.516;2023-02-08T01:50:49;4.30;;;2.22;;
72904;SDS011;61048;52.162;4.516;2023-02-08T01:53:21;3.67;;;2.35;;
72904;SDS011;61048;52.162;4.516;2023-02-08T01:55:51;3.80;;;2.20;;
72904;SDS011;61048;52.162;4.516;2023-02-08T01:58:20;4.85;;;1.73;;
72904;SDS011;61048;52.162;4.516;2023-02-08T02:00:48;3.67;;;1.90;;
72904;SDS011;61048;52.162;4.516;2023-02-08T02:03:17;4.15;;;2.33;;
72904;SDS011;61048;52.162;4.516;2023-02-08T02:05:46;3.42;;;1.95;;
72904;SDS011;61048;52.162;4.516;2023-02-08T02:08:15;3.72;;;1.75;;
72904;SDS011;61048;52.162;4.516;2023-02-08T02:10:42;4.95;;;2.67;;
72904;SDS011;61048;52.162;4.516;2023-02-08T02:13:11;4.20;;;2.60;;
72904;SDS011;61048;52.162;4.516;2023-02-08T02:15:41;3.83;;;2.55;;
72904;SDS011;61048;52.162;4.516;2023-02-08T02:18:08;4.00;;;1.95;;
72904;SDS011;61048;52.162;4.516;2023-02-08T02:20:44;3.85;;;2.45;;
72904;SDS011;61048;52.162;4.516;2023-02-08T02:23:34;3.78;;;2.50;;
72904;SDS011;61048;52.162;4.516;2023-02-08T02:29:36;4.65;;;2.08;;
72904;SDS011;61048;52.162;4.516;2023-02-08T02:32:20;4.82;;;3.10;;
72904;SDS011;61048;52.162;4.516;2023-02-08T02:35:00;2.92;;;1.83;;
72904;SDS011;61048;52.162;4.516;2023-02-08T02:37:35;3.97;;;2.28;;
72904;SDS011;61048;52.162;4.516;2023-02-08T02:40:14;4.53;;;1.60;;
72904;SDS011;61048;52.162;4.516;2023-02-08T02:42:50;4.13;;;2.33;;
72904;SDS011;61048;52.162;4.516;2023-02-08T02:45:45;3.75;;;2.13;;
72904;SDS011;61048;52.162;4.516;2023-02-08T02:48:21;3.47;;;1.35;;
72904;SDS011;61048;52.162;4.516;2023-02-08T02:50:55;3.53;;;2.70;;
72904;SDS011;61048;52.162;4.516;2023-02-08T02:53:28;3.78;;;1.95;;
72904;SDS011;61048;52.162;4.516;2023-02-08T02:55:59;3.22;;;1.60;;
72904;SDS011;61048;52.162;4.516;2023-02-08T02:58:30;3.15;;;1.33;;
72904;SDS011;61048;52.162;4.516;2023-02-08T03:00:58;3.65;;;2.00;;
72904;SDS011;61048;52.162;4.516;2023-02-08T03:03:27;4.18;;;2.28;;
72904;SDS011;61048;52.162;4.516;2023-02-08T03:05:58;5.63;;;2.97;;
72904;SDS011;61048;52.162;4.516;2023-02-08T03:08:36;4.30;;;2.30;;
72904;SDS011;61048;52.162;4.516;2023-02-08T03:11:15;3.58;;;2.05;;
72904;SDS011;61048;52.162;4.516;2023-02-08T03:14:00;3.30;;;2.15;;
72904;SDS011;61048;52.162;4.516;2023-02-08T03:16:31;2.92;;;1.88;;
72904;SDS011;61048;52.162;4.516;2023-02-08T03:19:11;3.17;;;1.83;;
72904;SDS011;61048;52.162;4.516;2023-02-08T03:21:45;2.88;;;1.85;;
72904;SDS011;61048;52.162;4.516;2023-02-08T03:24:22;3.63;;;2.33;;
72904;SDS011;61048;52.162;4.516;2023-02-08T03:26:54;2.55;;;2.00;;
72904;SDS011;61048;52.162;4.516;2023-02-08T03:29:29;3.28;;;1.95;;
72904;SDS011;61048;52.162;4.516;2023-02-08T03:32:05;3.05;;;2.03;;
72904;SDS011;61048;52.162;4.516;2023-02-08T03:34:40;3.47;;;2.83;;
72904;SDS011;61048;52.162;4.516;2023-02-08T03:37:14;4.18;;;1.83;;
72904;SDS011;61048;52.162;4.516;2023-02-08T03:42:14;2.75;;;1.80;;
72904;SDS011;61048;52.162;4.516;2023-02-08T03:44:45;2.78;;;1.38;;
72904;SDS011;61048;52.162;4.516;2023-02-08T03:47:16;3.80;;;2.30;;
72904;SDS011;61048;52.162;4.516;2023-02-08T03:49:49;2.88;;;1.33;;
72904;SDS011;61048;52.162;4.516;2023-02-08T03:52:18;2.72;;;1.83;;
72904;SDS011;61048;52.162;4.516;2023-02-08T03:54:48;3.30;;;2.20;;
72904;SDS011;61048;52.162;4.516;2023-02-08T03:57:25;3.08;;;2.20;;
72904;SDS011;61048;52.162;4.516;2023-02-08T03:59:55;2.53;;;1.17;;
72904;SDS011;61048;52.162;4.516;2023-02-08T04:02:29;2.58;;;1.73;;
72904;SDS011;61048;52.162;4.516;2023-02-08T04:05:04;2.85;;;1.67;;
72904;SDS011;61048;52.162;4.516;2023-02-08T04:07:32;3.83;;;1.30;;
72904;SDS011;61048;52.162;4.516;2023-02-08T04:09:59;3.28;;;2.17;;
72904;SDS011;61048;52.162;4.516;2023-02-08T04:12:27;3.63;;;2.38;;
72904;SDS011;61048;52.162;4.516;2023-02-08T04:14:54;2.40;;;1.75;;
72904;SDS011;61048;52.162;4.516;2023-02-08T04:17:21;2.95;;;1.90;;
72904;SDS011;61048;52.162;4.516;2023-02-08T04:19:48;2.95;;;2.05;;
72904;SDS011;61048;52.162;4.516;2023-02-08T04:22:16;2.97;;;1.13;;
72904;SDS011;61048;52.162;4.516;2023-02-08T04:24:43;2.67;;;1.77;;
72904;SDS011;61048;52.162;4.516;2023-02-08T04:27:10;2.75;;;1.77;;
72904;SDS011;61048;52.162;4.516;2023-02-08T04:29:37;3.53;;;2.20;;
72904;SDS011;61048;52.162;4.516;2023-02-08T04:32:05;2.28;;;1.10;;
72904;SDS011;61048;52.162;4.516;2023-02-08T04:34:35;2.67;;;1.83;;
72904;SDS011;61048;52.162;4.516;2023-02-08T04:37:02;3.00;;;1.98;;
72904;SDS011;61048;52.162;4.516;2023-02-08T04:39:30;4.65;;;1.75;;
72904;SDS011;61048;52.162;4.516;2023-02-08T04:41:57;2.58;;;1.80;;
72904;SDS011;61048;52.162;4.516;2023-02-08T04:44:24;2.92;;;1.98;;
72904;SDS011;61048;52.162;4.516;2023-02-08T04:46:51;3.33;;;3.03;;
72904;SDS011;61048;52.162;4.516;2023-02-08T04:49:19;2.55;;;2.35;;
72904;SDS011;61048;52.162;4.516;2023-02-08T04:51:46;2.42;;;1.70;;
72904;SDS011;61048;52.162;4.516;2023-02-08T04:54:13;3.25;;;1.80;;
72904;SDS011;61048;52.162;4.516;2023-02-08T04:56:41;3.00;;;1.92;;
72904;SDS011;61048;52.162;4.516;2023-02-08T04:59:08;2.70;;;1.77;;
72904;SDS011;61048;52.162;4.516;2023-02-08T05:01:35;3.33;;;1.92;;
72904;SDS011;61048;52.162;4.516;2023-02-08T05:04:02;2.90;;;2.50;;
72904;SDS011;61048;52.162;4.516;2023-02-08T05:06:29;3.47;;;2.63;;
72904;SDS011;61048;52.162;4.516;2023-02-08T05:08:56;3.00;;;1.65;;
72904;SDS011;61048;52.162;4.516;2023-02-08T05:11:23;2.67;;;1.63;;
72904;SDS011;61048;52.162;4.516;2023-02-08T05:13:52;2.80;;;1.35;;
72904;SDS011;61048;52.162;4.516;2023-02-08T05:16:19;3.88;;;2.33;;
72904;SDS011;61048;52.162;4.516;2023-02-08T05:18:46;2.13;;;1.30;;
72904;SDS011;61048;52.162;4.516;2023-02-08T05:21:13;2.65;;;1.10;;
72904;SDS011;61048;52.162;4.516;2023-02-08T05:23:40;2.80;;;1.10;;
72904;SDS011;61048;52.162;4.516;2023-02-08T05:26:07;3.00;;;2.03;;
72904;SDS011;61048;52.162;4.516;2023-02-08T05:28:35;3.58;;;2.17;;
72904;SDS011;61048;52.162;4.516;2023-02-08T05:31:08;2.33;;;1.70;;
72904;SDS011;61048;52.162;4.516;2023-02-08T05:33:35;2.20;;;1.75;;
72904;SDS011;61048;52.162;4.516;2023-02-08T05:36:02;2.72;;;1.95;;
72904;SDS011;61048;52.162;4.516;2023-02-08T05:38:30;3.50;;;1.60;;
72904;SDS011;61048;52.162;4.516;2023-02-08T05:40:57;2.58;;;2.20;;
72904;SDS011;61048;52.162;4.516;2023-02-08T05:43:24;3.03;;;2.35;;
72904;SDS011;61048;52.162;4.516;2023-02-08T05:45:51;2.92;;;1.65;;
72904;SDS011;61048;52.162;4.516;2023-02-08T05:48:19;3.15;;;2.15;;
72904;SDS011;61048;52.162;4.516;2023-02-08T05:50:46;3.05;;;1.70;;
72904;SDS011;61048;52.162;4.516;2023-02-08T05:53:13;2.72;;;1.70;;
72904;SDS011;61048;52.162;4.516;2023-02-08T05:55:42;3.47;;;1.40;;
72904;SDS011;61048;52.162;4.516;2023-02-08T05:58:10;2.75;;;1.85;;
72904;SDS011;61048;52.162;4.516;2023-02-08T06:00:37;2.88;;;2.17;;
72904;SDS011;61048;52.162;4.516;2023-02-08T06:03:04;3.65;;;1.83;;
72904;SDS011;61048;52.162;4.516;2023-02-08T06:05:33;2.58;;;1.85;;
72904;SDS011;61048;52.162;4.516;2023-02-08T06:08:02;4.05;;;1.98;;
72904;SDS011;61048;52.162;4.516;2023-02-08T06:10:29;3.00;;;1.92;;
72904;SDS011;61048;52.162;4.516;2023-02-08T06:12:56;3.00;;;1.40;;
72904;SDS011;61048;52.162;4.516;2023-02-08T06:15:23;3.33;;;1.35;;
72904;SDS011;61048;52.162;4.516;2023-02-08T06:17:50;2.97;;;1.23;;
72904;SDS011;61048;52.162;4.516;2023-02-08T06:20:17;3.35;;;1.35;;
72904;SDS011;61048;52.162;4.516;2023-02-08T06:22:45;2.88;;;2.47;;
72904;SDS011;61048;52.162;4.516;2023-02-08T06:25:12;2.67;;;1.85;;
72904;SDS011;61048;52.162;4.516;2023-02-08T06:27:39;3.00;;;1.95;;
72904;SDS011;61048;52.162;4.516;2023-02-08T06:30:06;2.80;;;1.95;;
72904;SDS011;61048;52.162;4.516;2023-02-08T06:32:34;3.13;;;1.98;;
72904;SDS011;61048;52.162;4.516;2023-02-08T06:35:00;2.13;;;1.70;;
72904;SDS011;61048;52.162;4.516;2023-02-08T06:37:27;2.30;;;1.10;;
72904;SDS011;61048;52.162;4.516;2023-02-08T06:39:56;2.78;;;1.75;;
72904;SDS011;61048;52.162;4.516;2023-02-08T06:42:23;2.88;;;1.98;;
72904;SDS011;61048;52.162;4.516;2023-02-08T06:44:50;3.67;;;2.42;;
72904;SDS011;61048;52.162;4.516;2023-02-08T06:47:19;4.07;;;2.05;;
72904;SDS011;61048;52.162;4.516;2023-02-08T06:49:46;4.05;;;2.67;;
72904;SDS011;61048;52.162;4.516;2023-02-08T06:52:13;4.72;;;2.97;;
72904;SDS011;61048;52.162;4.516;2023-02-08T06:54:40;3.28;;;1.75;;
72904;SDS011;61048;52.162;4.516;2023-02-08T06:57:08;6.90;;;3.28;;
72904;SDS011;61048;52.162;4.516;2023-02-08T06:59:36;9.05;;;3.33;;
72904;SDS011;61048;52.162;4.516;2023-02-08T07:02:03;9.23;;;3.78;;
72904;SDS011;61048;52.162;4.516;2023-02-08T07:04:30;6.22;;;3.05;;
72904;SDS011;61048;52.162;4.516;2023-02-08T07:06:57;6.78;;;2.90;;
72904;SDS011;61048;52.162;4.516;2023-02-08T07:09:24;8.18;;;3.28;;
72904;SDS011;61048;52.162;4.516;2023-02-08T07:11:51;7.20;;;3.65;;
72904;SDS011;61048;52.162;4.516;2023-02-08T07:14:19;12.45;;;3.70;;
72904;SDS011;61048;52.162;4.516;2023-02-08T07:16:48;4.50;;;2.33;;
72904;SDS011;61048;52.162;4.516;2023-02-08T07:19:15;7.90;;;3.15;;
72904;SDS011;61048;52.162;4.516;2023-02-08T07:21:42;5.70;;;3.60;;
72904;SDS011;61048;52.162;4.516;2023-02-08T07:24:09;4.75;;;2.97;;
72904;SDS011;61048;52.162;4.516;2023-02-08T07:26:36;4.68;;;2.63;;
72904;SDS011;61048;52.162;4.516;2023-02-08T07:29:03;6.35;;;2.33;;
72904;SDS011;61048;52.162;4.516;2023-02-08T07:31:32;5.30;;;2.70;;
72904;SDS011;61048;52.162;4.516;2023-02-08T07:33:58;5.50;;;3.30;;
72904;SDS011;61048;52.162;4.516;2023-02-08T07:36:25;6.88;;;2.25;;
72904;SDS011;61048;52.162;4.516;2023-02-08T07:38:52;4.68;;;3.28;;
72904;SDS011;61048;52.162;4.516;2023-02-08T07:41:19;7.72;;;3.22;;
72904;SDS011;61048;52.162;4.516;2023-02-08T07:43:46;4.18;;;2.88;;
72904;SDS011;61048;52.162;4.516;2023-02-08T07:46:14;4.90;;;2.90;;
72904;SDS011;61048;52.162;4.516;2023-02-08T07:48:43;4.32;;;2.15;;
72904;SDS011;61048;52.162;4.516;2023-02-08T07:51:11;3.65;;;2.10;;
72904;SDS011;61048;52.162;4.516;2023-02-08T07:53:38;4.60;;;2.58;;
72904;SDS011;61048;52.162;4.516;2023-02-08T07:56:05;7.20;;;3.33;;
72904;SDS011;61048;52.162;4.516;2023-02-08T07:58:34;6.25;;;3.00;;
72904;SDS011;61048;52.162;4.516;2023-02-08T08:01:01;5.20;;;2.20;;
72904;SDS011;61048;52.162;4.516;2023-02-08T08:03:28;6.50;;;2.70;;
72904;SDS011;61048;52.162;4.516;2023-02-08T08:05:56;5.15;;;2.35;;
72904;SDS011;61048;52.162;4.516;2023-02-08T08:08:23;5.38;;;2.97;;
72904;SDS011;61048;52.162;4.516;2023-02-08T08:10:50;4.25;;;2.13;;
72904;SDS011;61048;52.162;4.516;2023-02-08T08:13:17;5.88;;;2.90;;
72904;SDS011;61048;52.162;4.516;2023-02-08T08:15:45;5.53;;;2.92;;
72904;SDS011;61048;52.162;4.516;2023-02-08T08:18:12;5.60;;;2.70;;
72904;SDS011;61048;52.162;4.516;2023-02-08T08:20:39;3.65;;;1.80;;
72904;SDS011;61048;52.162;4.516;2023-02-08T08:23:07;4.28;;;2.50;;
72904;SDS011;61048;52.162;4.516;2023-02-08T08:25:35;6.07;;;2.47;;
72904;SDS011;61048;52.162;4.516;2023-02-08T08:28:02;5.30;;;2.55;;
72904;SDS011;61048;52.162;4.516;2023-02-08T08:30:30;6.72;;;2.28;;
72904;SDS011;61048;52.162;4.516;2023-02-08T08:32:56;7.00;;;3.67;;
72904;SDS011;61048;52.162;4.516;2023-02-08T08:35:23;7.65;;;3.75;;
72904;SDS011;61048;52.162;4.516;2023-02-08T08:37:50;5.75;;;2.30;;
72904;SDS011;61048;52.162;4.516;2023-02-08T08:40:19;6.03;;;4.20;;
72904;SDS011;61048;52.162;4.516;2023-02-08T08:42:45;6.15;;;3.65;;
72904;SDS011;61048;52.162;4.516;2023-02-08T08:45:12;5.95;;;4.20;;
72904;SDS011;61048;52.162;4.516;2023-02-08T08:47:40;30.45;;;8.68;;
72904;SDS011;61048;52.162;4.516;2023-02-08T08:50:07;50.65;;;12.77;;
72904;SDS011;61048;52.162;4.516;2023-02-08T08:52:34;56.90;;;14.13;;
72904;SDS011;61048;52.162;4.516;2023-02-08T08:55:01;40.78;;;12.48;;
72904;SDS011;61048;52.162;4.516;2023-02-08T08:57:29;41.03;;;10.15;;
72904;SDS011;61048;52.162;4.516;2023-02-08T08:59:56;43.38;;;12.30;;
72904;SDS011;61048;52.162;4.516;2023-02-08T09:02:23;40.45;;;12.35;;
72904;SDS011;61048;52.162;4.516;2023-02-08T09:04:50;34.92;;;10.23;;
72904;SDS011;61048;52.162;4.516;2023-02-08T09:07:17;41.47;;;12.45;;
72904;SDS011;61048;52.162;4.516;2023-02-08T09:09:44;28.90;;;9.75;;
72904;SDS011;61048;52.162;4.516;2023-02-08T09:12:12;34.58;;;8.88;;
72904;SDS011;61048;52.162;4.516;2023-02-08T09:14:40;29.17;;;10.38;;
72904;SDS011;61048;52.162;4.516;2023-02-08T09:17:09;34.63;;;11.00;;
72904;SDS011;61048;52.162;4.516;2023-02-08T09:19:35;34.75;;;10.10;;
72904;SDS011;61048;52.162;4.516;2023-02-08T09:22:04;31.05;;;9.10;;
72904;SDS011;61048;52.162;4.516;2023-02-08T09:24:31;31.67;;;9.15;;
72904;SDS011;61048;52.162;4.516;2023-02-08T09:26:58;27.92;;;8.10;;
72904;SDS011;61048;52.162;4.516;2023-02-08T09:29:25;25.88;;;8.77;;
72904;SDS011;61048;52.162;4.516;2023-02-08T09:31:55;26.10;;;7.95;;
72904;SDS011;61048;52.162;4.516;2023-02-08T09:34:22;25.40;;;8.15;;
72904;SDS011;61048;52.162;4.516;2023-02-08T09:36:49;26.02;;;8.18;;
72904;SDS011;61048;52.162;4.516;2023-02-08T09:39:17;24.55;;;9.48;;
72904;SDS011;61048;52.162;4.516;2023-02-08T09:44:54;26.88;;;8.50;;
72904;SDS011;61048;52.162;4.516;2023-02-08T09:47:38;21.67;;;7.13;;
72904;SDS011;61048;52.162;4.516;2023-02-08T09:50:09;22.70;;;8.85;;
72904;SDS011;61048;52.162;4.516;2023-02-08T09:52:39;21.75;;;8.65;;
72904;SDS011;61048;52.162;4.516;2023-02-08T09:55:20;26.25;;;7.18;;
72904;SDS011;61048;52.162;4.516;2023-02-08T09:57:54;22.52;;;9.75;;
72904;SDS011;61048;52.162;4.516;2023-02-08T10:00:26;20.13;;;8.20;;
72904;SDS011;61048;52.162;4.516;2023-02-08T10:03:01;23.55;;;7.13;;
72904;SDS011;61048;52.162;4.516;2023-02-08T10:05:29;17.20;;;6.97;;
72904;SDS011;61048;52.162;4.516;2023-02-08T10:07:57;19.17;;;7.60;;
72904;SDS011;61048;52.162;4.516;2023-02-08T10:10:29;16.33;;;7.15;;
72904;SDS011;61048;52.162;4.516;2023-02-08T10:13:06;14.52;;;6.38;;
72904;SDS011;61048;52.162;4.516;2023-02-08T10:15:45;18.23;;;7.47;;
72904;SDS011;61048;52.162;4.516;2023-02-08T10:18:21;17.48;;;7.80;;
72904;SDS011;61048;52.162;4.516;2023-02-08T10:21:09;15.45;;;7.20;;
72904;SDS011;61048;52.162;4.516;2023-02-08T10:23:48;14.98;;;6.28;;
72904;SDS011;61048;52.162;4.516;2023-02-08T10:26:25;15.32;;;6.07;;
72904;SDS011;61048;52.162;4.516;2023-02-08T10:28:59;14.75;;;5.85;;
72904;SDS011;61048;52.162;4.516;2023-02-08T10:31:37;13.95;;;5.55;;
72904;SDS011;61048;52.162;4.516;2023-02-08T10:34:19;12.88;;;6.50;;
72904;SDS011;61048;52.162;4.516;2023-02-08T10:36:55;14.70;;;5.70;;
72904;SDS011;61048;52.162;4.516;2023-02-08T10:39:23;16.40;;;6.57;;
72904;SDS011;61048;52.162;4.516;2023-02-08T10:41:53;13.93;;;6.85;;
72904;SDS011;61048;52.162;4.516;2023-02-08T10:44:21;13.50;;;5.00;;
72904;SDS011;61048;52.162;4.516;2023-02-08T10:46:55;11.43;;;5.65;;
72904;SDS011;61048;52.162;4.516;2023-02-08T10:49:37;13.98;;;6.40;;
72904;SDS011;61048;52.162;4.516;2023-02-08T10:52:10;12.43;;;6.50;;
72904;SDS011;61048;52.162;4.516;2023-02-08T10:54:37;11.27;;;6.20;;
72904;SDS011;61048;52.162;4.516;2023-02-08T10:57:04;12.45;;;6.10;;
72904;SDS011;61048;52.162;4.516;2023-02-08T10:59:44;11.95;;;6.75;;
72904;SDS011;61048;52.162;4.516;2023-02-08T11:02:20;10.98;;;6.68;;
72904;SDS011;61048;52.162;4.516;2023-02-08T11:04:58;12.25;;;7.07;;
72904;SDS011;61048;52.162;4.516;2023-02-08T11:07:28;11.05;;;6.03;;
72904;SDS011;61048;52.162;4.516;2023-02-08T11:09:59;12.25;;;6.50;;
72904;SDS011;61048;52.162;4.516;2023-02-08T11:12:40;9.73;;;5.22;;
72904;SDS011;61048;52.162;4.516;2023-02-08T11:15:19;12.27;;;6.57;;
72904;SDS011;61048;52.162;4.516;2023-02-08T11:17:52;9.35;;;5.28;;
72904;SDS011;61048;52.162;4.516;2023-02-08T11:20:23;9.50;;;6.18;;
72904;SDS011;61048;52.162;4.516;2023-02-08T11:22:55;10.38;;;4.95;;
72904;SDS011;61048;52.162;4.516;2023-02-08T11:25:33;9.73;;;5.60;;
72904;SDS011;61048;52.162;4.516;2023-02-08T11:28:02;9.48;;;5.25;;
72904;SDS011;61048;52.162;4.516;2023-02-08T11:30:30;10.10;;;5.45;;
72904;SDS011;61048;52.162;4.516;2023-02-08T11:33:17;9.18;;;6.22;;
72904;SDS011;61048;52.162;4.516;2023-02-08T11:35:55;9.55;;;5.05;;
72904;SDS011;61048;52.162;4.516;2023-02-08T11:38:30;10.07;;;5.60;;
72904;SDS011;61048;52.162;4.516;2023-02-08T11:41:00;9.10;;;5.35;;
72904;SDS011;61048;52.162;4.516;2023-02-08T11:43:30;10.40;;;6.07;;
72904;SDS011;61048;52.162;4.516;2023-02-08T11:45:59;13.05;;;4.63;;
72904;SDS011;61048;52.162;4.516;2023-02-08T11:48:32;9.63;;;6.25;;
72904;SDS011;61048;52.162;4.516;2023-02-08T11:53:34;10.25;;;4.03;;
72904;SDS011;61048;52.162;4.516;2023-02-08T11:56:06;10.05;;;5.28;;
72904;SDS011;61048;52.162;4.516;2023-02-08T11:58:53;10.43;;;4.20;;
72904;SDS011;61048;52.162;4.516;2023-02-08T12:01:24;8.95;;;4.32;;
72904;SDS011;61048;52.162;4.516;2023-02-08T12:03:53;9.95;;;4.88;;
72904;SDS011;61048;52.162;4.516;2023-02-08T12:06:28;8.75;;;4.05;;
72904;SDS011;61048;52.162;4.516;2023-02-08T12:09:18;9.63;;;4.47;;
72904;SDS011;61048;52.162;4.516;2023-02-08T12:11:57;8.73;;;4.18;;
72904;SDS011;61048;52.162;4.516;2023-02-08T12:14:36;8.65;;;4.80;;
72904;SDS011;61048;52.162;4.516;2023-02-08T12:17:23;7.40;;;4.78;;
72904;SDS011;61048;52.162;4.516;2023-02-08T12:23:18;7.65;;;4.50;;
72904;SDS011;61048;52.162;4.516;2023-02-08T12:25:55;6.43;;;3.55;;
72904;SDS011;61048;52.162;4.516;2023-02-08T12:28:34;9.48;;;4.45;;
72904;SDS011;61048;52.162;4.516;2023-02-08T12:31:12;7.65;;;3.80;;
72904;SDS011;61048;52.162;4.516;2023-02-08T12:33:48;9.20;;;5.28;;
72904;SDS011;61048;52.162;4.516;2023-02-08T12:36:26;8.90;;;4.47;;
72904;SDS011;61048;52.162;4.516;2023-02-08T12:39:16;7.68;;;4.53;;
72904;SDS011;61048;52.162;4.516;2023-02-08T12:42:30;6.70;;;4.03;;
72904;SDS011;61048;52.162;4.516;2023-02-08T12:45:10;6.07;;;3.50;;
72904;SDS011;61048;52.162;4.516;2023-02-08T12:48:02;7.32;;;3.60;;
72904;SDS011;61048;52.162;4.516;2023-02-08T12:50:39;10.75;;;3.70;;
72904;SDS011;61048;52.162;4.516;2023-02-08T12:53:16;5.88;;;3.17;;
72904;SDS011;61048;52.162;4.516;2023-02-08T12:55:49;6.72;;;3.17;;
72904;SDS011;61048;52.162;4.516;2023-02-08T12:58:23;6.82;;;2.88;;
72904;SDS011;61048;52.162;4.516;2023-02-08T13:00:54;5.10;;;2.65;;
72904;SDS011;61048;52.162;4.516;2023-02-08T13:03:30;5.88;;;3.25;;
72904;SDS011;61048;52.162;4.516;2023-02-08T13:06:04;6.53;;;3.30;;
72904;SDS011;61048;52.162;4.516;2023-02-08T13:08:33;6.82;;;4.63;;
72904;SDS011;61048;52.162;4.516;2023-02-08T13:11:09;6.97;;;4.82;;
72904;SDS011;61048;52.162;4.516;2023-02-08T13:13:41;5.45;;;3.65;;
72904;SDS011;61048;52.162;4.516;2023-02-08T13:16:11;5.10;;;2.95;;
72904;SDS011;61048;52.162;4.516;2023-02-08T13:18:44;5.75;;;2.90;;
72904;SDS011;61048;52.162;4.516;2023-02-08T13:21:17;4.70;;;2.50;;
72904;SDS011;61048;52.162;4.516;2023-02-08T13:23:48;7.78;;;2.72;;
72904;SDS011;61048;52.162;4.516;2023-02-08T13:26:17;7.43;;;3.13;;
72904;SDS011;61048;52.162;4.516;2023-02-08T13:28:51;6.47;;;2.83;;
72904;SDS011;61048;52.162;4.516;2023-02-08T13:31:19;6.30;;;2.72;;
72904;SDS011;61048;52.162;4.516;2023-02-08T13:33:49;4.40;;;2.40;;
72904;SDS011;61048;52.162;4.516;2023-02-08T13:36:19;4.85;;;2.78;;
72904;SDS011;61048;52.162;4.516;2023-02-08T13:38:49;6.45;;;3.33;;
72904;SDS011;61048;52.162;4.516;2023-02-08T13:41:17;3.83;;;2.30;;
72904;SDS011;61048;52.162;4.516;2023-02-08T13:43:48;6.35;;;2.22;;
72904;SDS011;61048;52.162;4.516;2023-02-08T13:46:19;4.30;;;2.17;;
72904;SDS011;61048;52.162;4.516;2023-02-08T13:48:49;5.78;;;2.28;;
72904;SDS011;61048;52.162;4.516;2023-02-08T13:54:17;4.88;;;2.35;;
72904;SDS011;61048;52.162;4.516;2023-02-08T13:56:45;5.95;;;2.33;;
72904;SDS011;61048;52.162;4.516;2023-02-08T13:59:28;6.68;;;2.10;;
72904;SDS011;61048;52.162;4.516;2023-02-08T14:07:58;4.20;;;2.13;;
72904;SDS011;61048;52.162;4.516;2023-02-08T14:10:28;6.05;;;3.15;;
72904;SDS011;61048;52.162;4.516;2023-02-08T14:13:02;5.63;;;2.22;;
72904;SDS011;61048;52.162;4.516;2023-02-08T14:15:38;6.93;;;2.35;;
72904;SDS011;61048;52.162;4.516;2023-02-08T14:20:53;3.83;;;1.73;;
72904;SDS011;61048;52.162;4.516;2023-02-08T14:23:28;5.80;;;2.35;;
72904;SDS011;61048;52.162;4.516;2023-02-08T14:25:57;5.53;;;1.85;;
72904;SDS011;61048;52.162;4.516;2023-02-08T14:28:29;3.75;;;1.88;;
72904;SDS011;61048;52.162;4.516;2023-02-08T14:31:01;4.82;;;2.17;;
72904;SDS011;61048;52.162;4.516;2023-02-08T14:33:32;3.80;;;1.77;;
72904;SDS011;61048;52.162;4.516;2023-02-08T14:36:02;4.22;;;1.75;;
72904;SDS011;61048;52.162;4.516;2023-02-08T14:53:41;4.03;;;1.73;;
72904;SDS011;61048;52.162;4.516;2023-02-08T14:56:15;4.43;;;1.88;;
72904;SDS011;61048;52.162;4.516;2023-02-08T14:58:45;4.72;;;2.13;;
72904;SDS011;61048;52.162;4.516;2023-02-08T15:01:16;3.65;;;1.70;;
72904;SDS011;61048;52.162;4.516;2023-02-08T15:03:46;3.05;;;1.35;;
72904;SDS011;61048;52.162;4.516;2023-02-08T15:09:26;4.72;;;1.90;;
72904;SDS011;61048;52.162;4.516;2023-02-08T15:11:57;3.65;;;2.10;;
72904;SDS011;61048;52.162;4.516;2023-02-08T15:14:26;4.53;;;2.03;;
72904;SDS011;61048;52.162;4.516;2023-02-08T15:16:55;4.13;;;2.85;;
72904;SDS011;61048;52.162;4.516;2023-02-08T15:19:23;5.68;;;1.98;;
72904;SDS011;61048;52.162;4.516;2023-02-08T15:21:53;2.85;;;1.63;;
72904;SDS011;61048;52.162;4.516;2023-02-08T15:24:21;3.67;;;2.17;;
72904;SDS011;61048;52.162;4.516;2023-02-08T15:26:54;3.97;;;2.00;;
72904;SDS011;61048;52.162;4.516;2023-02-08T15:29:22;6.03;;;2.85;;
72904;SDS011;61048;52.162;4.516;2023-02-08T15:31:51;3.75;;;2.10;;
72904;SDS011;61048;52.162;4.516;2023-02-08T15:34:20;3.65;;;1.98;;
72904;SDS011;61048;52.162;4.516;2023-02-08T15:36:49;4.28;;;2.22;;
72904;SDS011;61048;52.162;4.516;2023-02-08T15:39:22;3.95;;;2.20;;
72904;SDS011;61048;52.162;4.516;2023-02-08T15:42:00;3.70;;;2.40;;
72904;SDS011;61048;52.162;4.516;2023-02-08T15:44:28;3.85;;;2.13;;
72904;SDS011;61048;52.162;4.516;2023-02-08T15:46:58;4.75;;;3.45;;
72904;SDS011;61048;52.162;4.516;2023-02-08T15:49:27;3.97;;;2.47;;
72904;SDS011;61048;52.162;4.516;2023-02-08T15:51:57;3.97;;;2.58;;